Terminal Aerodrome Forecast
Issued by NWS

Home | Current Version | Previous Version | Text Only | Print | Product List | Glossary On
Versions: 1 2 3 4 5 6 7 8 9 10 11 12 13 14 15 16 17 18 19 20 21 22 23 24 25 26
000
FTUS43 KMQT 310523
TAFIWD
TAF
KIWD 310523Z 3106/0106 09006KT P6SM VCSH BKN080
     FM311500 13010G17KT P6SM -SHRA OVC060
     FM312200 14009KT 6SM -SHRA OVC030
     FM010500 17012KT 5SM -SHRA BR OVC020=

USA.gov is the U.S. government's official web portal to all federal, state and local government web resources and services.